KRYV

Details ICAO KRYV
Name Watertown Muni
Region United States
Timezone America/Chicago (UTC-6.0)
Plans Departing 9
Arriving 3
Stats Elevation 833 ft / 254 m (AMSL)
Location 43.169845° -88.722947°
Runways 2
Magnetic Variation 3.266° W
Sunrise 2017-12-15 13:21:24 UTC / 2017-12-15 07:21:24 Local
Sunset 2017-12-15 22:21:43 UTC / 2017-12-15 16:21:43 Local
Advertisement - Login to hide

Runways

ID Width Length Bearing (true) Bearing (mag) Surface Threshold Offset Overrun Length
05 75 ft / 23 m 4,425 ft / 1,349 m 53.09° 56.36° Asphalt 200 ft / 61 m 400 ft / 122 m
11 75 ft / 23 m 2,817 ft / 859 m 113.31° 116.58° Asphalt 0 ft / 0 m 0 ft / 0 m
23 75 ft / 23 m 4,425 ft / 1,349 m 233.10° 236.37° Asphalt 0 ft / 0 m 400 ft / 122 m
29 75 ft / 23 m 2,817 ft / 859 m 293.32° 296.59° Asphalt 0 ft / 0 m 0 ft / 0 m

Map

Weather


0- 5 10 15 20 25 30 35+ Temperature / ° C

Clouds and Precipitation
Forecast for 2017-12-16 06:00 UTC. Updated an hour ago

Ground ~20,000 ft ~40,000 ft Winds

METAR

KRYV 160355Z AUTO 00000KT 5SM -SN BKN029 BKN035 OVC050 M01/M01 A2982 RMK AO2 T10151015

TAF

Not found

Frequencies

Recorded 119.97 MHz AWOS 3
Approach 119.15 MHz MADISON APP/DEP
Unicom 122.80 MHz CTAF/UNICOM
Warning: Do not use this data for real-world aviation or navigation. No guarantee of current accuracy is given.